createdAt,value
2019-04-05T00:02:16.904Z,7.90
2019-04-05T00:04:47.643Z,7.90
2019-04-05T00:07:18.431Z,7.90
2019-04-05T00:09:49.132Z,7.90
2019-04-05T00:12:21.181Z,7.90
2019-04-05T00:14:52.569Z,7.90
2019-04-05T00:17:23.979Z,7.90
2019-04-05T00:19:54.640Z,7.90
2019-04-05T00:22:26.037Z,7.90
2019-04-05T00:24:56.324Z,7.90
2019-04-05T00:27:28.112Z,7.90
2019-04-05T00:29:58.948Z,7.90
2019-04-05T00:32:29.982Z,7.90
2019-04-05T00:35:00.292Z,7.90
2019-04-05T00:37:31.041Z,7.80
2019-04-05T00:40:03.080Z,7.80
2019-04-05T00:42:33.807Z,7.80
2019-04-05T00:45:04.509Z,7.80
2019-04-05T00:47:35.726Z,7.80
2019-04-05T00:50:09.323Z,7.80
2019-04-05T00:52:40.474Z,7.80
2019-04-05T00:55:11.846Z,7.80
2019-04-05T00:57:43.474Z,7.80
2019-04-05T01:00:16.241Z,7.80
2019-04-05T01:02:47.141Z,7.80
2019-04-05T01:05:17.914Z,7.80
2019-04-05T01:07:50.853Z,7.80
2019-04-05T01:10:22.593Z,7.80
2019-04-05T01:12:54.185Z,7.80
2019-04-05T01:15:25.580Z,7.80
2019-04-05T01:17:56.817Z,7.80
2019-04-05T01:20:30.111Z,7.80
2019-04-05T01:23:03.482Z,7.80
2019-04-05T01:25:39.055Z,7.80
2019-04-05T01:28:10.919Z,7.80
2019-04-05T01:30:41.767Z,7.80
2019-04-05T01:33:12.279Z,7.80
2019-04-05T01:35:44.014Z,7.80
2019-04-05T01:38:15.286Z,7.80
2019-04-05T01:40:47.474Z,7.80
2019-04-05T01:43:19.625Z,7.80
2019-04-05T01:45:53.901Z,7.90
2019-04-05T01:48:22.746Z,7.80
2019-04-05T01:50:53.137Z,7.80
2019-04-05T01:53:24.859Z,7.80
2019-04-05T01:55:56.406Z,7.80
2019-04-05T01:58:26.952Z,7.80
2019-04-05T02:00:58.793Z,7.80
2019-04-05T02:03:30.997Z,7.80
2019-04-05T02:06:02.286Z,7.80
2019-04-05T02:08:33.579Z,7.80
2019-04-05T02:11:03.963Z,7.80
2019-04-05T02:13:34.377Z,7.80
2019-04-05T02:16:06.627Z,7.80
2019-04-05T02:18:38.390Z,7.80
2019-04-05T02:21:09.922Z,7.90
2019-04-05T02:23:41.442Z,7.90
2019-04-05T02:26:12.839Z,7.90
2019-04-05T02:28:43.364Z,7.90
2019-04-05T02:31:14.504Z,7.90
2019-04-05T02:33:45.710Z,7.90
2019-04-05T02:36:16.461Z,7.90
2019-04-05T02:38:47.087Z,7.90
2019-04-05T02:41:19.509Z,7.90
2019-04-05T02:43:52.767Z,7.90
2019-04-05T02:46:24.536Z,7.90
2019-04-05T02:48:56.014Z,7.90
2019-04-05T02:51:31.925Z,7.90
2019-04-05T02:54:03.442Z,7.90
2019-04-05T02:56:34.979Z,7.90
2019-04-05T02:59:06.507Z,7.90
2019-04-05T03:01:37.513Z,7.90
2019-04-05T03:04:08.912Z,7.90
2019-04-05T03:06:40.064Z,7.90
2019-04-05T03:09:09.934Z,7.90
2019-04-05T03:11:42.986Z,7.90
2019-04-05T03:14:13.912Z,7.90
2019-04-05T03:16:47.210Z,7.90
2019-04-05T03:19:20.391Z,7.90
2019-04-05T03:21:53.162Z,7.80
2019-04-05T03:24:27.371Z,7.80
2019-04-05T03:27:01.215Z,7.80
2019-04-05T03:29:33.143Z,7.90
2019-04-05T03:32:04.374Z,7.80
2019-04-05T03:34:36.609Z,7.80
2019-04-05T03:37:08.190Z,7.80
2019-04-05T03:39:38.702Z,7.80
2019-04-05T03:42:09.846Z,7.80
2019-04-05T03:44:40.896Z,7.80
2019-04-05T03:47:12.762Z,7.70
2019-04-05T03:49:44.349Z,7.70
2019-04-05T03:52:16.029Z,7.70
2019-04-05T03:54:47.567Z,7.80
2019-04-05T03:57:19.503Z,7.80
2019-04-05T03:59:52.528Z,7.80
2019-04-05T04:02:24.001Z,7.80
2019-04-05T04:04:55.611Z,7.80
2019-04-05T04:07:27.143Z,7.80
2019-04-05T04:09:58.511Z,7.80
2019-04-05T04:12:29.574Z,7.80
2019-04-05T04:15:02.868Z,7.80
2019-04-05T04:17:34.018Z,7.90
2019-04-05T04:20:05.486Z,7.90
2019-04-05T04:22:36.837Z,7.90
2019-04-05T04:25:08.041Z,7.90
2019-04-05T04:27:39.418Z,7.90
2019-04-05T04:30:09.979Z,7.90
2019-04-05T04:32:40.201Z,7.90
2019-04-05T04:35:09.670Z,7.90
2019-04-05T04:37:39.927Z,7.90
2019-04-05T04:40:11.521Z,7.90
2019-04-05T04:42:41.920Z,7.90
2019-04-05T04:45:12.876Z,7.90
2019-04-05T04:47:42.741Z,7.80
2019-04-05T04:50:13.167Z,7.80
2019-04-05T04:52:43.590Z,7.80
2019-04-05T04:55:13.657Z,7.80
2019-04-05T04:57:44.579Z,7.80
2019-04-05T05:00:15.266Z,7.70
2019-04-05T05:02:44.899Z,7.70
2019-04-05T05:05:15.065Z,7.70
2019-04-05T05:07:45.233Z,7.70
2019-04-05T05:10:15.871Z,7.70
2019-04-05T05:12:46.629Z,7.70
2019-04-05T05:15:16.171Z,7.70
2019-04-05T05:17:57.941Z,7.70
2019-04-05T05:20:19.158Z,7.70
2019-04-05T05:22:49.048Z,7.70
2019-04-05T05:25:18.763Z,7.70
2019-04-05T05:27:48.654Z,7.70
2019-04-05T05:30:18.405Z,7.70
2019-04-05T05:32:49.188Z,7.70
2019-04-05T05:35:19.840Z,7.70
2019-04-05T05:37:49.316Z,7.70
2019-04-05T05:40:20.053Z,7.70
2019-04-05T05:42:49.765Z,7.80
2019-04-05T05:45:19.667Z,7.80
2019-04-05T05:47:52.021Z,7.80
2019-04-05T05:50:20.774Z,7.90
2019-04-05T05:52:50.601Z,7.90
2019-04-05T05:55:20.623Z,7.90
2019-04-05T05:57:54.293Z,7.90
2019-04-05T06:00:23.181Z,7.90
2019-04-05T06:02:53.030Z,7.90
2019-04-05T06:05:23.596Z,8.00
2019-04-05T06:07:53.249Z,8.00
2019-04-05T06:10:23.328Z,8.00
2019-04-05T06:12:52.803Z,8.10
2019-04-05T06:15:23.231Z,8.10
2019-04-05T06:20:23.448Z,8.10
2019-04-05T06:22:53.209Z,8.10
2019-04-05T06:25:23.953Z,8.20
2019-04-05T06:27:54.486Z,8.20
2019-04-05T06:30:24.003Z,8.20
2019-04-05T06:32:53.750Z,8.30
2019-04-05T06:35:23.724Z,8.30
2019-04-05T06:35:39.483Z,8.10
2019-04-05T06:37:53.018Z,8.30
2019-04-05T06:40:23.395Z,8.40
2019-04-05T06:42:53.217Z,8.40
2019-04-05T06:45:23.236Z,8.40
2019-04-05T06:47:53.035Z,8.50
2019-04-05T06:50:22.274Z,8.50
2019-04-05T06:52:52.173Z,8.50
2019-04-05T06:55:21.326Z,8.50
2019-04-05T06:57:51.317Z,8.50
2019-04-05T07:00:24.062Z,8.50
2019-04-05T07:02:53.678Z,8.50
2019-04-05T07:05:23.855Z,8.60
2019-04-05T07:07:53.022Z,8.60
2019-04-05T07:10:22.123Z,8.60
2019-04-05T07:12:51.138Z,8.60
2019-04-05T07:15:20.255Z,8.70
2019-04-05T07:17:49.600Z,8.70
2019-04-05T07:20:18.725Z,8.70
2019-04-05T07:22:48.267Z,8.70
2019-04-05T07:25:18.165Z,8.80
2019-04-05T07:27:48.005Z,8.80
2019-04-05T07:30:17.602Z,8.80
2019-04-05T07:32:47.237Z,8.80
2019-04-05T07:35:17.013Z,8.80
2019-04-05T07:37:46.169Z,8.80
2019-04-05T07:40:15.663Z,8.80
2019-04-05T07:42:45.145Z,8.80
2019-04-05T07:45:15.241Z,8.90
2019-04-05T07:47:45.162Z,8.90
2019-04-05T07:50:14.979Z,8.90
2019-04-05T07:52:44.442Z,9.00
2019-04-05T07:55:14.724Z,9.10
2019-04-05T07:57:44.058Z,9.10
2019-04-05T08:00:32.601Z,9.20
2019-04-05T08:03:01.780Z,9.20
2019-04-05T08:05:31.628Z,9.30
2019-04-05T08:08:03.457Z,9.30
2019-04-05T08:10:32.886Z,9.40
2019-04-05T08:13:04.326Z,9.40
2019-04-05T08:15:34.036Z,9.50
2019-04-05T08:18:03.556Z,9.50
2019-04-05T08:20:32.853Z,9.60
2019-04-05T08:23:02.515Z,9.60
2019-04-05T08:25:31.789Z,9.70
2019-04-05T08:28:01.026Z,9.80
2019-04-05T08:30:30.575Z,9.80
2019-04-05T08:33:01.964Z,9.90
2019-04-05T08:35:30.995Z,10.00
2019-04-05T08:38:01.126Z,10.10
2019-04-05T08:40:31.769Z,10.20
2019-04-05T08:43:01.216Z,10.20
2019-04-05T08:45:30.811Z,10.20
2019-04-05T08:48:00.597Z,10.30
2019-04-05T08:50:29.714Z,10.30
2019-04-05T08:53:01.462Z,10.30
2019-04-05T08:55:31.548Z,10.40
2019-04-05T08:58:00.918Z,10.40
2019-04-05T09:00:31.220Z,10.40
2019-04-05T09:03:00.769Z,10.50
2019-04-05T09:05:33.141Z,10.50
2019-04-05T09:08:01.495Z,10.50
2019-04-05T09:10:31.523Z,10.50
2019-04-05T09:13:00.776Z,10.60
2019-04-05T09:15:30.214Z,10.50
2019-04-05T09:17:59.650Z,10.50
2019-04-05T09:20:29.046Z,10.50
2019-04-05T09:22:58.160Z,10.50
2019-04-05T09:25:28.015Z,10.50
2019-04-05T09:27:57.311Z,10.60
2019-04-05T09:30:26.641Z,10.60
2019-04-05T09:32:56.429Z,10.60
2019-04-05T09:35:26.270Z,10.50
2019-04-05T09:37:56.142Z,10.50
2019-04-05T09:40:25.784Z,10.50
2019-04-05T09:42:54.950Z,10.50
2019-04-05T09:45:24.947Z,10.60
2019-04-05T09:47:54.391Z,10.60
2019-04-05T09:50:23.443Z,10.60
2019-04-05T09:52:53.487Z,10.60
2019-04-05T09:55:22.665Z,10.60
2019-04-05T09:57:52.298Z,10.50
2019-04-05T10:00:25.316Z,10.60
2019-04-05T10:02:55.333Z,10.60
2019-04-05T10:05:24.889Z,10.50
2019-04-05T10:07:55.926Z,10.50
2019-04-05T10:10:25.872Z,10.50
2019-04-05T10:12:55.861Z,10.50
2019-04-05T10:15:25.216Z,10.50
2019-04-05T10:17:54.435Z,10.50
2019-04-05T10:20:24.081Z,10.50
2019-04-05T10:22:54.581Z,10.50
2019-04-05T10:25:25.077Z,10.50
2019-04-05T10:27:54.422Z,10.60
2019-04-05T10:30:24.455Z,10.50
2019-04-05T10:32:53.586Z,10.50
2019-04-05T10:35:22.892Z,10.50
2019-04-05T10:37:52.879Z,10.60
2019-04-05T10:40:22.581Z,10.60
2019-04-05T10:42:52.859Z,10.70
2019-04-05T10:45:22.241Z,10.70
2019-04-05T10:47:51.034Z,10.70
2019-04-05T10:50:20.404Z,10.80
2019-04-05T10:52:50.183Z,10.80
2019-04-05T10:55:20.314Z,10.80
2019-04-05T10:57:49.900Z,10.80
2019-04-05T11:00:21.369Z,10.80
2019-04-05T11:02:51.262Z,10.90
2019-04-05T11:05:20.524Z,10.90
2019-04-05T11:07:50.853Z,11.00
2019-04-05T11:10:20.169Z,11.00
2019-04-05T11:12:50.457Z,11.00
2019-04-05T11:15:21.293Z,11.10
2019-04-05T11:17:50.587Z,11.10
2019-04-05T11:20:22.187Z,11.10
2019-04-05T11:22:52.259Z,11.10
2019-04-05T11:25:22.297Z,11.10
2019-04-05T11:27:53.876Z,11.20
2019-04-05T11:30:45.275Z,11.20
2019-04-05T11:33:19.245Z,11.30
2019-04-05T11:35:47.338Z,11.30
2019-04-05T11:38:17.235Z,11.30
2019-04-05T11:40:47.051Z,11.30
2019-04-05T11:43:17.897Z,11.40
2019-04-05T11:45:48.547Z,11.40
2019-04-05T11:48:19.395Z,11.40
2019-04-05T11:50:48.982Z,11.40
2019-04-05T11:53:21.765Z,11.40
2019-04-05T11:55:50.958Z,11.40
2019-04-05T11:58:20.556Z,11.40
2019-04-05T12:00:54.268Z,11.40
2019-04-05T12:03:34.666Z,11.40
2019-04-05T12:06:04.320Z,11.40
2019-04-05T12:08:34.454Z,11.40
2019-04-05T12:11:04.129Z,11.30
2019-04-05T12:13:34.245Z,11.30
2019-04-05T12:16:06.097Z,11.30
2019-04-05T12:18:36.271Z,11.20
2019-04-05T12:21:05.965Z,11.20
2019-04-05T12:23:35.811Z,11.10
2019-04-05T12:26:05.132Z,11.10
2019-04-05T12:28:34.830Z,11.00
2019-04-05T12:31:04.209Z,11.00
2019-04-05T12:33:34.038Z,11.00
2019-04-05T12:36:04.585Z,11.00
2019-04-05T12:38:34.277Z,11.00
2019-04-05T12:41:05.164Z,11.00
2019-04-05T12:43:34.352Z,11.00
2019-04-05T12:46:05.020Z,11.00
2019-04-05T12:48:34.552Z,11.00
2019-04-05T12:51:05.553Z,11.10
2019-04-05T12:53:35.582Z,11.10
2019-04-05T12:56:05.733Z,11.10
2019-04-05T12:58:35.065Z,11.10
2019-04-05T13:01:04.816Z,11.10
2019-04-05T13:03:35.482Z,11.10
2019-04-05T13:06:05.846Z,11.20
2019-04-05T13:08:35.347Z,11.20
2019-04-05T13:11:05.023Z,11.10
2019-04-05T13:13:34.578Z,11.00
2019-04-05T13:16:04.398Z,11.00
2019-04-05T13:18:33.853Z,11.00
2019-04-05T13:21:14.333Z,11.00
2019-04-05T13:23:35.994Z,11.00
2019-04-05T13:26:06.404Z,11.00
2019-04-05T13:28:38.402Z,11.00
2019-04-05T13:31:07.848Z,10.90
2019-04-05T13:33:38.146Z,10.90
2019-04-05T13:36:08.600Z,10.90
2019-04-05T13:38:38.782Z,10.80
2019-04-05T13:41:08.534Z,10.80
2019-04-05T13:43:38.907Z,10.80
2019-04-05T13:46:21.029Z,10.90
2019-04-05T13:48:40.756Z,10.90
2019-04-05T13:51:12.873Z,10.90
2019-04-05T13:53:41.524Z,10.90
2019-04-05T13:56:11.166Z,10.90
2019-04-05T13:58:40.895Z,10.90
2019-04-05T14:01:10.826Z,10.90
2019-04-05T14:03:40.183Z,10.90
2019-04-05T14:06:10.885Z,10.90
2019-04-05T14:08:41.846Z,10.90
2019-04-05T14:11:11.672Z,10.90
2019-04-05T14:13:42.833Z,11.00
2019-04-05T14:16:13.552Z,11.00
2019-04-05T14:18:49.398Z,11.00
2019-04-05T14:21:14.750Z,11.00
2019-04-05T14:23:44.244Z,11.00
2019-04-05T14:26:14.396Z,11.00
2019-04-05T14:28:45.158Z,11.00
2019-04-05T14:31:15.666Z,11.10
2019-04-05T14:33:45.927Z,11.10
2019-04-05T14:36:15.568Z,11.20
2019-04-05T14:38:44.995Z,11.20
2019-04-05T14:41:16.152Z,11.20
2019-04-05T14:43:46.165Z,11.20
2019-04-05T14:46:15.951Z,11.20
2019-04-05T14:48:46.060Z,11.20
2019-04-05T14:51:16.255Z,11.20
2019-04-05T14:53:45.365Z,11.20
2019-04-05T14:56:14.731Z,11.20
2019-04-05T14:58:44.747Z,11.30
2019-04-05T15:01:15.552Z,11.30
2019-04-05T15:03:46.623Z,11.30
2019-04-05T15:06:16.402Z,11.30
2019-04-05T15:08:47.935Z,11.20
2019-04-05T15:11:17.911Z,11.20
2019-04-05T15:13:47.855Z,11.20
2019-04-05T15:16:17.952Z,11.20
2019-04-05T15:18:48.041Z,11.20
2019-04-05T15:21:18.324Z,11.10
2019-04-05T15:23:48.012Z,11.00
2019-04-05T15:26:20.490Z,11.00
2019-04-05T15:28:54.602Z,11.00
2019-04-05T15:31:25.746Z,10.90
2019-04-05T15:33:55.619Z,10.90
2019-04-05T15:36:26.529Z,10.80
2019-04-05T15:38:55.926Z,10.80
2019-04-05T15:41:26.971Z,10.80
2019-04-05T15:43:56.532Z,10.80
2019-04-05T15:46:27.682Z,10.90
2019-04-05T15:48:57.339Z,10.90
2019-04-05T15:51:27.531Z,10.90
2019-04-05T15:54:01.130Z,10.80
2019-04-05T15:56:29.249Z,10.80
2019-04-05T15:59:01.494Z,10.80
2019-04-05T16:01:34.223Z,10.90
2019-04-05T16:04:03.429Z,10.90
2019-04-05T16:06:33.186Z,10.90
2019-04-05T16:09:02.155Z,10.90
2019-04-05T16:11:31.865Z,10.90
2019-04-05T16:14:01.622Z,10.90
2019-04-05T16:16:31.692Z,10.90
2019-04-05T16:19:01.541Z,10.90
2019-04-05T16:21:31.589Z,10.90
2019-04-05T16:24:01.197Z,10.90
2019-04-05T16:26:30.844Z,10.90
2019-04-05T16:29:01.496Z,10.90
2019-04-05T16:31:32.752Z,10.90
2019-04-05T16:34:02.162Z,10.90
2019-04-05T16:36:31.687Z,10.90
2019-04-05T16:39:03.841Z,10.80
2019-04-05T16:41:33.662Z,10.80
2019-04-05T16:44:03.519Z,10.80
2019-04-05T16:46:33.559Z,10.80
2019-04-05T16:49:02.808Z,10.80
2019-04-05T16:51:32.335Z,10.80
2019-04-05T16:54:02.728Z,10.80
2019-04-05T16:56:32.820Z,10.80
2019-04-05T16:59:02.500Z,10.80
2019-04-05T17:01:32.757Z,10.80
2019-04-05T17:04:01.810Z,10.80
2019-04-05T17:06:31.296Z,10.80
2019-04-05T17:09:01.135Z,10.80
2019-04-05T17:11:30.966Z,10.80
2019-04-05T17:14:00.370Z,10.80
2019-04-05T17:16:30.181Z,10.80
2019-04-05T17:19:00.696Z,10.70
2019-04-05T17:21:30.964Z,10.70
2019-04-05T17:24:00.643Z,10.70
2019-04-05T17:26:29.940Z,10.70
2019-04-05T17:28:59.948Z,10.60
2019-04-05T17:31:30.055Z,10.60
2019-04-05T17:34:00.310Z,10.60
2019-04-05T17:36:29.844Z,10.60
2019-04-05T17:38:59.257Z,10.50
2019-04-05T17:41:29.454Z,10.50
2019-04-05T17:43:59.065Z,10.50
2019-04-05T17:46:29.499Z,10.50
2019-04-05T17:48:59.211Z,10.40
2019-04-05T17:51:28.516Z,10.40
2019-04-05T17:53:58.179Z,10.40
2019-04-05T17:56:27.822Z,10.40
2019-04-05T17:58:57.976Z,10.40
2019-04-05T18:01:27.299Z,10.30
2019-04-05T18:03:57.151Z,10.30
2019-04-05T18:06:27.100Z,10.30
2019-04-05T18:08:56.386Z,10.30
2019-04-05T18:11:26.748Z,10.30
2019-04-05T18:13:57.897Z,10.20
2019-04-05T18:16:27.238Z,10.20
2019-04-05T18:18:56.636Z,10.20
2019-04-05T18:21:26.076Z,10.20
2019-04-05T18:23:56.375Z,10.10
2019-04-05T18:26:26.193Z,10.20
2019-04-05T18:28:55.099Z,10.20
2019-04-05T18:31:26.066Z,10.20
2019-04-05T18:33:56.108Z,10.20
2019-04-05T18:36:25.853Z,10.10
2019-04-05T18:38:55.348Z,10.10
2019-04-05T18:41:24.869Z,10.10
2019-04-05T18:43:54.191Z,10.10
2019-04-05T18:46:23.740Z,10.10
2019-04-05T18:48:53.289Z,10.10
2019-04-05T18:51:24.058Z,10.10
2019-04-05T18:53:53.676Z,10.10
2019-04-05T18:56:23.455Z,10.00
2019-04-05T18:58:53.698Z,10.10
2019-04-05T19:01:23.758Z,10.10
2019-04-05T19:03:53.772Z,10.10
2019-04-05T19:06:23.372Z,10.10
2019-04-05T19:08:53.251Z,10.10
2019-04-05T19:11:22.702Z,10.10
2019-04-05T19:14:00.880Z,10.10
2019-04-05T19:16:23.017Z,10.10
2019-04-05T19:18:52.730Z,10.00
2019-04-05T19:21:23.772Z,10.00
2019-04-05T19:23:53.850Z,10.10
2019-04-05T19:26:23.212Z,10.00
2019-04-05T19:28:52.344Z,10.00
2019-04-05T19:49:02.460Z,10.00
2019-04-05T19:51:32.497Z,10.00
2019-04-05T19:54:02.770Z,10.00
2019-04-05T19:56:33.417Z,10.00
2019-04-05T19:59:03.027Z,10.00
2019-04-05T20:01:33.346Z,10.00
2019-04-05T20:04:02.538Z,10.00
2019-04-05T20:06:32.214Z,10.00
2019-04-05T20:09:02.002Z,10.00
2019-04-05T20:11:32.308Z,10.00
2019-04-05T20:14:03.492Z,10.00
2019-04-05T20:16:33.469Z,10.00
2019-04-05T20:19:04.762Z,10.00
2019-04-05T20:21:35.433Z,10.00
2019-04-05T20:24:13.680Z,10.00
2019-04-05T20:26:35.921Z,10.00
2019-04-05T20:29:05.275Z,10.00
2019-04-05T20:31:35.100Z,10.00
2019-04-05T20:34:04.752Z,10.00
2019-04-05T20:36:34.740Z,10.00
2019-04-05T20:39:06.944Z,10.00
2019-04-05T20:41:36.108Z,10.00
2019-04-05T20:44:07.549Z,9.90
2019-04-05T20:46:38.222Z,9.90
2019-04-05T20:49:09.438Z,9.90
2019-04-05T20:51:39.783Z,9.90
2019-04-05T20:54:09.869Z,10.00
2019-04-05T20:56:41.039Z,10.00
2019-04-05T20:59:11.150Z,10.00
2019-04-05T21:01:41.586Z,10.00
2019-04-05T21:04:11.847Z,10.00
2019-04-05T21:06:41.275Z,10.00
2019-04-05T21:09:11.945Z,10.00
2019-04-05T21:11:42.931Z,10.00
2019-04-05T21:14:13.740Z,10.00
2019-04-05T21:16:44.277Z,10.00
2019-04-05T21:19:14.696Z,10.00
2019-04-05T21:21:43.844Z,10.00
2019-04-05T21:24:13.492Z,10.00
2019-04-05T21:26:44.091Z,10.00
2019-04-05T21:29:15.687Z,10.00
2019-04-05T21:31:45.803Z,10.00
2019-04-05T21:34:16.455Z,10.10
2019-04-05T21:36:46.382Z,10.10
2019-04-05T21:39:16.500Z,10.10
2019-04-05T21:41:46.849Z,10.10
2019-04-05T21:44:17.671Z,10.10
2019-04-05T21:46:47.458Z,10.10
2019-04-05T21:49:18.138Z,10.10
2019-04-05T21:51:47.871Z,10.10
2019-04-05T21:54:17.587Z,10.10
2019-04-05T21:56:47.342Z,10.10
2019-04-05T21:59:16.530Z,10.10
2019-04-05T22:01:46.649Z,10.10
2019-04-05T22:04:16.135Z,10.10
2019-04-05T22:06:47.465Z,10.10
2019-04-05T22:09:18.006Z,10.00
2019-04-05T22:11:48.530Z,10.00
2019-04-05T22:14:20.278Z,10.10
2019-04-05T22:16:49.789Z,10.10
2019-04-05T22:19:21.286Z,10.00
2019-04-05T22:21:51.012Z,10.10
2019-04-05T22:24:20.981Z,10.10
2019-04-05T22:26:52.813Z,10.00
2019-04-05T22:29:23.526Z,10.00
2019-04-05T22:31:53.573Z,10.00
2019-04-05T22:34:22.840Z,10.00
2019-04-05T22:36:53.304Z,10.00
2019-04-05T22:39:24.089Z,10.00
2019-04-05T22:41:53.766Z,10.00
2019-04-05T22:44:25.651Z,10.00
2019-04-05T22:46:56.035Z,10.00
2019-04-05T22:49:26.510Z,10.00
2019-04-05T22:51:56.309Z,10.00
2019-04-05T22:54:27.391Z,10.00
2019-04-05T22:56:57.753Z,10.00
2019-04-05T22:59:27.728Z,10.00
2019-04-05T23:01:57.926Z,10.00
2019-04-05T23:04:27.044Z,9.90
2019-04-05T23:06:57.665Z,9.90
2019-04-05T23:09:27.610Z,9.90
2019-04-05T23:11:57.207Z,9.90
2019-04-05T23:14:26.920Z,9.80
2019-04-05T23:16:57.638Z,9.80
2019-04-05T23:19:27.285Z,9.80
2019-04-05T23:21:57.932Z,9.80
2019-04-05T23:24:27.964Z,9.80
2019-04-05T23:26:59.002Z,9.70
2019-04-05T23:29:30.205Z,9.70
2019-04-05T23:32:00.906Z,9.70
2019-04-05T23:34:31.722Z,9.70
2019-04-05T23:37:02.778Z,9.60
2019-04-05T23:39:32.743Z,9.60
2019-04-05T23:42:02.966Z,9.60
2019-04-05T23:44:32.632Z,9.50
2019-04-05T23:47:03.570Z,9.50
2019-04-05T23:49:34.778Z,9.50
2019-04-05T23:52:04.696Z,9.50
2019-04-05T23:54:34.726Z,9.50
2019-04-05T23:57:05.977Z,9.50
2019-04-05T23:59:35.448Z,9.40
